Time;durP1;ratioP1;P1;durP2;ratioP2;P2;SDS_P1;SDS_P2;PMS_P1;PMS_P2;Temp;Humidity;BMP_temperature;BMP_pressure;BME280_temperature;BME280_humidity;BME280_pressure;Samples;Min_cycle;Max_cycle;Signal;HPM_P1;HPM_P2
2021/08/16 00:00:42;;;;;;;15.97;11.40;;;;;;;;;;2101257;28;20076;-43
2021/08/16 00:01:44;;;;;;;19.17;12.25;;;;;;;;;;2103379;28;20500;-44
2021/08/16 00:02:45;;;;;;;20.60;11.98;;;;;;;;;;2103961;28;20056;-44
2021/08/16 00:03:46;;;;;;;21.70;13.07;;;;;;;;;;2103411;28;20063;-43
2021/08/16 00:04:47;;;;;;;20.40;12.20;;;;;;;;;;2104753;28;20036;-43
2021/08/16 00:05:48;;;;;;;19.25;12.38;;;;;;;;;;2102520;28;20126;-43
2021/08/16 00:06:49;;;;;;;18.83;12.60;;;;;;;;;;2101671;28;20486;-43
2021/08/16 00:07:50;;;;;;;22.08;12.40;;;;;;;;;;2104442;28;20330;-43
2021/08/16 00:08:52;;;;;;;19.55;12.02;;;;;;;;;;2103808;28;20037;-43
2021/08/16 00:09:54;;;;;;;21.65;12.88;;;;;;;;;;2101110;28;20548;-44
2021/08/16 00:10:54;;;;;;;19.00;12.02;;;;;;;;;;2105107;28;20048;-43
2021/08/16 00:11:56;;;;;;;17.13;12.43;;;;;;;;;;2101627;28;20055;-43
2021/08/16 00:12:57;;;;;;;23.92;12.68;;;;;;;;;;2102416;28;20127;-43
2021/08/16 00:13:58;;;;;;;21.05;13.02;;;;;;;;;;2105207;28;20327;-43
2021/08/16 00:14:59;;;;;;;17.45;12.55;;;;;;;;;;2103876;28;20169;-44
2021/08/16 00:16:01;;;;;;;21.90;12.05;;;;;;;;;;2100866;28;20044;-43
2021/08/16 00:17:02;;;;;;;19.95;12.18;;;;;;;;;;2105611;28;20404;-42
2021/08/16 00:18:04;;;;;;;17.20;12.05;;;;;;;;;;2101645;28;20413;-43
2021/08/16 00:19:05;;;;;;;19.95;12.95;;;;;;;;;;2101626;28;20131;-43
2021/08/16 00:20:06;;;;;;;18.75;12.18;;;;;;;;;;2102450;28;20043;-44
2021/08/16 00:21:07;;;;;;;21.38;12.38;;;;;;;;;;2102230;28;20123;-43
2021/08/16 00:22:08;;;;;;;21.88;12.88;;;;;;;;;;2102450;28;20142;-44
2021/08/16 00:23:10;;;;;;;19.70;13.35;;;;;;;;;;2101004;28;20044;-43
2021/08/16 00:24:11;;;;;;;24.92;13.65;;;;;;;;;;2102806;28;20044;-43
2021/08/16 00:25:12;;;;;;;23.30;13.60;;;;;;;;;;2102700;28;20552;-42
2021/08/16 00:26:13;;;;;;;18.80;12.32;;;;;;;;;;2103701;28;20127;-44
2021/08/16 00:27:15;;;;;;;22.63;13.23;;;;;;;;;;2101352;28;20170;-45
2021/08/16 00:28:15;;;;;;;18.80;13.00;;;;;;;;;;2102952;28;20048;-44
2021/08/16 00:29:17;;;;;;;19.17;13.23;;;;;;;;;;2103739;28;20516;-43
2021/08/16 00:30:17;;;;;;;24.63;13.98;;;;;;;;;;2100935;28;20628;-43
2021/08/16 00:31:19;;;;;;;20.97;13.87;;;;;;;;;;2101446;28;20078;-43
2021/08/16 00:32:20;;;;;;;24.15;13.80;;;;;;;;;;2103741;28;20182;-43
2021/08/16 00:33:21;;;;;;;22.47;14.87;;;;;;;;;;2103271;28;20163;-42
2021/08/16 00:34:22;;;;;;;23.92;13.82;;;;;;;;;;2103076;28;20293;-42
2021/08/16 00:35:23;;;;;;;21.40;13.70;;;;;;;;;;2103593;28;20123;-43
2021/08/16 00:36:23;;;;;;;28.38;14.23;;;;;;;;;;2102806;28;20051;-44
2021/08/16 00:37:25;;;;;;;26.73;15.17;;;;;;;;;;2102771;28;20561;-42
2021/08/16 00:38:26;;;;;;;23.35;14.68;;;;;;;;;;2103625;28;20072;-43
2021/08/16 00:39:28;;;;;;;21.55;13.70;;;;;;;;;;2102400;28;20071;-45
2021/08/16 00:40:29;;;;;;;21.70;14.40;;;;;;;;;;2103353;28;20416;-43
2021/08/16 00:41:31;;;;;;;26.70;14.50;;;;;;;;;;2102507;28;20290;-44
2021/08/16 00:42:32;;;;;;;31.20;15.02;;;;;;;;;;2100819;28;20660;-44
2021/08/16 00:43:33;;;;;;;22.57;14.17;;;;;;;;;;2104919;28;20048;-43
2021/08/16 00:44:34;;;;;;;19.90;13.27;;;;;;;;;;2101490;28;20469;-44
2021/08/16 00:45:36;;;;;;;23.37;14.97;;;;;;;;;;2101871;28;20071;-43
2021/08/16 00:46:37;;;;;;;21.95;14.75;;;;;;;;;;2103367;28;20287;-44
2021/08/16 00:47:39;;;;;;;23.83;14.50;;;;;;;;;;2103590;28;21123;-42
2021/08/16 00:48:41;;;;;;;32.03;15.98;;;;;;;;;;2100604;28;20048;-43
2021/08/16 00:49:42;;;;;;;24.35;14.88;;;;;;;;;;2103233;28;20485;-44
2021/08/16 00:50:44;;;;;;;25.33;14.33;;;;;;;;;;2102975;28;20040;-44
2021/08/16 00:51:45;;;;;;;27.77;14.98;;;;;;;;;;2101806;28;20568;-43
2021/08/16 00:52:46;;;;;;;23.00;14.23;;;;;;;;;;2102000;28;20079;-43
2021/08/16 00:53:47;;;;;;;25.27;14.98;;;;;;;;;;2103499;28;20198;-43
2021/08/16 00:54:49;;;;;;;19.80;13.63;;;;;;;;;;2102650;28;20130;-43
2021/08/16 00:55:50;;;;;;;24.25;13.25;;;;;;;;;;2098327;28;20423;-43
2021/08/16 00:56:51;;;;;;;27.07;14.07;;;;;;;;;;2097928;28;20113;-43
2021/08/16 00:57:54;;;;;;;21.60;14.60;;;;;;;;;;2100488;28;20472;-43
2021/08/16 00:58:56;;;;;;;21.63;13.68;;;;;;;;;;2098448;28;20045;-42
2021/08/16 00:59:57;;;;;;;29.45;15.05;;;;;;;;;;2098474;28;20087;-45
2021/08/16 01:00:59;;;;;;;19.98;14.27;;;;;;;;;;2103061;28;20471;-43
2021/08/16 01:02:00;;;;;;;29.20;14.82;;;;;;;;;;2098596;28;20048;-42
2021/08/16 01:03:01;;;;;;;20.98;13.75;;;;;;;;;;2097971;28;20076;-43
2021/08/16 01:04:02;;;;;;;47.83;15.00;;;;;;;;;;2102144;28;20249;-44
2021/08/16 01:05:04;;;;;;;22.47;14.10;;;;;;;;;;2098475;28;20082;-43
2021/08/16 01:06:05;;;;;;;23.92;13.98;;;;;;;;;;2098771;28;20723;-43
2021/08/16 01:07:06;;;;;;;21.63;14.47;;;;;;;;;;2102592;28;20997;-45
2021/08/16 01:08:07;;;;;;;21.63;14.60;;;;;;;;;;2106904;28;20134;-43
2021/08/16 01:09:08;;;;;;;22.10;15.23;;;;;;;;;;2105907;28;20048;-43
2021/08/16 01:10:11;;;;;;;24.30;14.82;;;;;;;;;;2102273;28;20040;-42
2021/08/16 01:11:12;;;;;;;23.58;14.38;;;;;;;;;;2098498;28;20052;-43
2021/08/16 01:12:13;;;;;;;23.90;14.60;;;;;;;;;;2099368;28;20048;-43
2021/08/16 01:13:14;;;;;;;20.95;13.75;;;;;;;;;;2105436;28;20067;-43
2021/08/16 01:14:16;;;;;;;26.48;14.30;;;;;;;;;;2106660;28;20131;-43
2021/08/16 01:15:17;;;;;;;22.73;13.68;;;;;;;;;;2103453;28;20083;-42
2021/08/16 01:16:18;;;;;;;26.60;14.27;;;;;;;;;;2105486;28;20101;-46
2021/08/16 01:17:19;;;;;;;25.25;14.15;;;;;;;;;;2106851;28;20120;-42
2021/08/16 01:18:20;;;;;;;20.15;13.68;;;;;;;;;;2103210;28;20049;-42
2021/08/16 01:19:22;;;;;;;22.40;14.10;;;;;;;;;;2100666;28;20131;-43
2021/08/16 01:20:23;;;;;;;23.00;14.95;;;;;;;;;;2098395;28;20175;-43
2021/08/16 01:21:24;;;;;;;25.27;14.23;;;;;;;;;;2099051;28;20041;-42
2021/08/16 01:22:25;;;;;;;23.30;14.67;;;;;;;;;;2105010;28;20048;-47
2021/08/16 01:23:26;;;;;;;24.35;15.23;;;;;;;;;;2106713;28;20127;-42
2021/08/16 01:24:27;;;;;;;22.95;14.02;;;;;;;;;;2102058;28;20126;-42
2021/08/16 01:25:34;;;;;;;23.48;15.30;;;;;;;;;;2106552;28;20093;-42
2021/08/16 01:26:36;;;;;;;25.42;15.05;;;;;;;;;;2106600;28;20525;-43
2021/08/16 01:27:38;;;;;;;21.50;13.45;;;;;;;;;;2101712;28;20059;-43
2021/08/16 01:28:39;;;;;;;24.05;14.43;;;;;;;;;;2106824;28;20072;-43
2021/08/16 01:29:41;;;;;;;22.90;14.52;;;;;;;;;;2106608;28;20100;-43
2021/08/16 01:30:42;;;;;;;24.02;14.55;;;;;;;;;;2103373;28;20087;-42
2021/08/16 01:31:43;;;;;;;23.75;14.45;;;;;;;;;;2098378;28;20071;-42
2021/08/16 01:32:45;;;;;;;22.58;14.95;;;;;;;;;;2098661;28;20190;-43
2021/08/16 01:33:45;;;;;;;24.27;14.07;;;;;;;;;;2103535;28;20150;-42
2021/08/16 01:34:46;;;;;;;21.23;14.40;;;;;;;;;;2106780;28;20051;-45
2021/08/16 01:35:48;;;;;;;22.50;15.38;;;;;;;;;;2106107;28;20048;-44
2021/08/16 01:36:49;;;;;;;22.02;15.18;;;;;;;;;;2103939;28;20178;-43
2021/08/16 01:37:50;;;;;;;20.85;14.35;;;;;;;;;;2106599;28;20044;-42
2021/08/16 01:38:51;;;;;;;23.38;14.85;;;;;;;;;;2103699;28;20052;-42
2021/08/16 01:39:52;;;;;;;27.25;15.30;;;;;;;;;;2105993;28;20126;-42
2021/08/16 01:40:53;;;;;;;20.73;13.67;;;;;;;;;;2106648;28;20085;-43
2021/08/16 01:41:55;;;;;;;21.08;15.05;;;;;;;;;;2103070;28;20157;-43
2021/08/16 01:42:56;;;;;;;23.50;15.20;;;;;;;;;;2105068;28;20104;-42
2021/08/16 01:43:57;;;;;;;27.65;15.77;;;;;;;;;;2106737;28;20132;-43
2021/08/16 01:44:58;;;;;;;22.57;14.53;;;;;;;;;;2103284;28;20052;-43
2021/08/16 01:45:59;;;;;;;28.88;16.30;;;;;;;;;;2105159;28;20119;-42
2021/08/16 01:47:00;;;;;;;24.33;14.95;;;;;;;;;;2106723;28;20101;-43
2021/08/16 01:48:01;;;;;;;22.73;14.73;;;;;;;;;;2104369;28;20041;-42
2021/08/16 01:49:02;;;;;;;24.37;15.93;;;;;;;;;;2100479;28;20093;-42
2021/08/16 01:50:03;;;;;;;23.77;15.18;;;;;;;;;;2098143;28;20129;-42
2021/08/16 01:51:05;;;;;;;25.55;15.52;;;;;;;;;;2099509;28;20087;-42
2021/08/16 01:52:06;;;;;;;24.33;15.07;;;;;;;;;;2105902;28;20043;-42
2021/08/16 01:53:07;;;;;;;23.77;15.45;;;;;;;;;;2097045;28;20120;-43
2021/08/16 01:54:08;;;;;;;26.65;15.38;;;;;;;;;;2100726;28;20131;-44
2021/08/16 01:55:11;;;;;;;26.30;16.00;;;;;;;;;;2106148;28;20048;-42
2021/08/16 01:56:12;;;;;;;24.05;15.82;;;;;;;;;;2105673;28;20552;-44
2021/08/16 01:57:15;;;;;;;23.50;15.37;;;;;;;;;;2100877;28;20040;-43
2021/08/16 01:58:16;;;;;;;24.48;14.25;;;;;;;;;;2106419;28;20481;-42
2021/08/16 01:59:17;;;;;;;24.07;14.63;;;;;;;;;;2106318;28;20044;-42
2021/08/16 02:00:18;;;;;;;20.25;14.23;;;;;;;;;;2101600;28;20071;-44
2021/08/16 02:01:19;;;;;;;22.10;14.20;;;;;;;;;;2098172;28;20044;-48
2021/08/16 02:02:20;;;;;;;25.08;15.50;;;;;;;;;;2097911;28;20051;-46
2021/08/16 02:03:22;;;;;;;28.08;14.48;;;;;;;;;;2103183;28;20531;-43
2021/08/16 02:04:22;;;;;;;22.90;14.50;;;;;;;;;;2106551;28;20048;-45
2021/08/16 02:05:24;;;;;;;25.27;14.63;;;;;;;;;;2105077;28;20133;-43
2021/08/16 02:06:25;;;;;;;25.90;15.63;;;;;;;;;;2101554;28;20131;-44
2021/08/16 02:07:26;;;;;;;24.17;15.02;;;;;;;;;;2097034;28;20084;-43
2021/08/16 02:08:26;;;;;;;23.17;15.60;;;;;;;;;;2097592;28;20037;-44
2021/08/16 02:09:28;;;;;;;28.00;14.93;;;;;;;;;;2103909;28;20097;-45
2021/08/16 02:10:29;;;;;;;24.38;15.95;;;;;;;;;;2106343;28;20127;-43
2021/08/16 02:11:29;;;;;;;24.60;15.57;;;;;;;;;;2103670;28;20384;-43
2021/08/16 02:12:31;;;;;;;23.37;15.93;;;;;;;;;;2101673;28;20053;-43
2021/08/16 02:13:32;;;;;;;24.55;15.68;;;;;;;;;;2098169;28;20068;-44
2021/08/16 02:14:33;;;;;;;22.50;15.57;;;;;;;;;;2099201;28;20480;-43
2021/08/16 02:15:34;;;;;;;24.10;15.38;;;;;;;;;;2104862;28;20476;-43
2021/08/16 02:16:35;;;;;;;24.73;15.07;;;;;;;;;;2106336;28;20052;-44
2021/08/16 02:17:36;;;;;;;23.23;14.68;;;;;;;;;;2102825;28;20102;-43
2021/08/16 02:18:37;;;;;;;20.77;15.10;;;;;;;;;;2100740;28;20094;-43
2021/08/16 02:19:38;;;;;;;26.05;16.08;;;;;;;;;;2098032;28;20079;-43
2021/08/16 02:20:39;;;;;;;23.93;15.33;;;;;;;;;;2100569;28;20048;-44
2021/08/16 02:21:40;;;;;;;24.75;15.02;;;;;;;;;;2099988;28;20047;-44
2021/08/16 02:22:41;;;;;;;20.03;14.87;;;;;;;;;;2097897;28;20589;-43
2021/08/16 02:23:42;;;;;;;23.25;15.20;;;;;;;;;;2101002;28;20186;-43
2021/08/16 02:24:43;;;;;;;23.47;15.33;;;;;;;;;;2099441;28;20052;-43
2021/08/16 02:25:44;;;;;;;23.83;14.82;;;;;;;;;;2097951;28;20560;-43
2021/08/16 02:26:45;;;;;;;25.30;15.13;;;;;;;;;;2099317;28;20131;-43
2021/08/16 02:27:47;;;;;;;24.60;15.23;;;;;;;;;;2106211;28;20136;-43
2021/08/16 02:28:49;;;;;;;22.13;14.75;;;;;;;;;;2106434;28;20071;-43
2021/08/16 02:29:51;;;;;;;23.65;15.68;;;;;;;;;;2103028;28;20036;-43
2021/08/16 02:30:52;;;;;;;24.00;15.57;;;;;;;;;;2097877;28;20572;-43
2021/08/16 02:31:52;;;;;;;23.48;15.15;;;;;;;;;;2097999;28;20129;-42
2021/08/16 02:32:54;;;;;;;22.13;14.73;;;;;;;;;;2101885;28;20095;-43
2021/08/16 02:33:55;;;;;;;21.17;15.43;;;;;;;;;;2106312;28;20569;-43
2021/08/16 02:34:56;;;;;;;22.25;15.10;;;;;;;;;;2106168;28;20416;-43
2021/08/16 02:35:57;;;;;;;23.73;16.23;;;;;;;;;;2101292;28;20044;-42
2021/08/16 02:36:58;;;;;;;24.00;15.18;;;;;;;;;;2097885;28;20469;-43
2021/08/16 02:37:59;;;;;;;24.33;15.97;;;;;;;;;;2098658;28;20178;-43
2021/08/16 02:39:00;;;;;;;27.45;14.68;;;;;;;;;;2102171;28;20050;-44
2021/08/16 02:40:01;;;;;;;22.20;14.93;;;;;;;;;;2106326;28;20046;-43
2021/08/16 02:41:02;;;;;;;25.60;15.00;;;;;;;;;;2104561;28;20416;-43
2021/08/16 02:42:03;;;;;;;25.70;15.25;;;;;;;;;;2101797;28;20080;-46
2021/08/16 02:43:05;;;;;;;28.05;15.55;;;;;;;;;;2097754;28;20383;-43
2021/08/16 02:44:06;;;;;;;22.83;14.77;;;;;;;;;;2097245;28;20048;-43
2021/08/16 02:45:08;;;;;;;23.90;15.82;;;;;;;;;;2101667;28;20079;-44
2021/08/16 02:46:09;;;;;;;;;;;;;;;;;;2098231;28;20454;-43
2021/08/16 02:47:10;;;;;;;22.08;15.55;;;;;;;;;;2098763;28;19927;-43
2021/08/16 02:48:11;;;;;;;23.55;15.13;;;;;;;;;;2104567;28;20568;-43
2021/08/16 02:49:12;;;;;;;21.53;15.93;;;;;;;;;;2106350;28;20048;-42
2021/08/16 02:50:13;;;;;;;22.30;15.63;;;;;;;;;;2103016;28;20041;-41
2021/08/16 02:51:14;;;;;;;24.15;16.35;;;;;;;;;;2104691;28;20473;-41
2021/08/16 02:52:15;;;;;;;23.58;15.52;;;;;;;;;;2103915;28;20126;-41
2021/08/16 02:53:17;;;;;;;26.00;15.88;;;;;;;;;;2098774;28;20083;-41
2021/08/16 02:54:18;;;;;;;23.13;15.63;;;;;;;;;;2099945;28;20101;-41
2021/08/16 02:55:19;;;;;;;22.93;15.77;;;;;;;;;;2097829;28;20052;-41
2021/08/16 02:56:20;;;;;;;22.23;14.82;;;;;;;;;;2099416;28;20044;-41
2021/08/16 02:57:21;;;;;;;26.40;15.60;;;;;;;;;;2099304;28;20286;-41
2021/08/16 02:58:23;;;;;;;21.63;15.87;;;;;;;;;;2097927;28;20040;-42
2021/08/16 02:59:24;;;;;;;22.33;14.65;;;;;;;;;;2100034;28;20052;-42
2021/08/16 03:00:25;;;;;;;23.07;16.10;;;;;;;;;;2106160;28;20048;-41
2021/08/16 03:01:26;;;;;;;21.38;15.07;;;;;;;;;;2105944;28;20475;-41
2021/08/16 03:02:27;;;;;;;23.08;15.98;;;;;;;;;;2102840;28;20566;-42
2021/08/16 03:03:28;;;;;;;27.45;15.35;;;;;;;;;;2105806;28;20457;-41
2021/08/16 03:04:32;;;;;;;21.27;15.27;;;;;;;;;;2106013;28;20047;-41
2021/08/16 03:05:33;;;;;;;23.85;15.15;;;;;;;;;;2101427;28;20489;-41
2021/08/16 03:06:34;;;;;;;24.35;15.68;;;;;;;;;;2097381;28;20101;-42
2021/08/16 03:07:35;;;;;;;23.07;15.50;;;;;;;;;;2097185;28;20654;-41
2021/08/16 03:08:36;;;;;;;20.75;14.88;;;;;;;;;;2101585;28;20369;-42
2021/08/16 03:09:37;;;;;;;24.27;15.93;;;;;;;;;;2106356;28;20078;-41
2021/08/16 03:10:42;;;;;;;22.25;14.35;;;;;;;;;;2104333;28;20082;-41
2021/08/16 03:11:43;;;;;;;22.23;15.82;;;;;;;;;;2101445;28;20103;-42
2021/08/16 03:12:44;;;;;;;20.87;14.80;;;;;;;;;;2097605;28;20489;-41
2021/08/16 03:13:45;;;;;;;20.35;15.05;;;;;;;;;;2097159;28;20044;-41
2021/08/16 03:14:47;;;;;;;22.92;14.27;;;;;;;;;;2101312;28;20478;-41
2021/08/16 03:15:48;;;;;;;23.58;14.68;;;;;;;;;;2097669;28;20052;-42
2021/08/16 03:16:49;;;;;;;24.35;15.98;;;;;;;;;;2097171;28;20105;-41
2021/08/16 03:17:55;;;;;;;20.45;14.15;;;;;;;;;;2100514;28;20508;-41
2021/08/16 03:18:56;;;;;;;;;;;;;;;;;;2097644;28;20127;-41
2021/08/16 03:19:57;;;;;;;22.85;14.27;;;;;;;;;;2099705;28;19927;-41
2021/08/16 03:20:58;;;;;;;21.90;15.05;;;;;;;;;;2104595;28;20485;-42
2021/08/16 03:21:59;;;;;;;22.33;14.90;;;;;;;;;;2106167;28;20052;-42
2021/08/16 03:23:00;;;;;;;22.27;14.57;;;;;;;;;;2103726;28;20150;-41
2021/08/16 03:24:01;;;;;;;26.83;15.07;;;;;;;;;;2097664;28;20478;-42
2021/08/16 03:25:02;;;;;;;24.75;16.17;;;;;;;;;;2097720;28;20045;-42
2021/08/16 03:26:03;;;;;;;24.90;15.30;;;;;;;;;;2102020;28;20173;-41
2021/08/16 03:27:04;;;;;;;23.27;15.63;;;;;;;;;;2105882;28;20093;-41
2021/08/16 03:28:05;;;;;;;23.30;15.18;;;;;;;;;;2105588;28;20047;-41
2021/08/16 03:29:07;;;;;;;23.10;14.52;;;;;;;;;;2101545;28;20552;-41
2021/08/16 03:30:08;;;;;;;26.10;15.10;;;;;;;;;;2106116;28;20257;-42
2021/08/16 03:31:10;;;;;;;25.30;15.02;;;;;;;;;;2105573;28;20048;-42
2021/08/16 03:32:11;;;;;;;23.70;14.93;;;;;;;;;;2103055;28;20044;-41
2021/08/16 03:33:12;;;;;;;21.17;14.73;;;;;;;;;;2105910;28;20459;-42
2021/08/16 03:34:13;;;;;;;20.80;14.10;;;;;;;;;;2103529;28;20122;-42
2021/08/16 03:35:14;;;;;;;23.00;15.13;;;;;;;;;;2101274;28;20417;-42
2021/08/16 03:36:15;;;;;;;25.15;15.63;;;;;;;;;;2097576;28;20131;-41
2021/08/16 03:37:16;;;;;;;24.75;15.80;;;;;;;;;;2096910;28;20122;-42
2021/08/16 03:38:17;;;;;;;21.30;15.67;;;;;;;;;;2104127;28;20043;-41
2021/08/16 03:39:19;;;;;;;23.30;15.00;;;;;;;;;;2105611;28;20108;-42
2021/08/16 03:40:20;;;;;;;25.67;15.32;;;;;;;;;;2102511;28;20115;-41
2021/08/16 03:41:21;;;;;;;22.48;15.90;;;;;;;;;;2104322;28;20155;-41
2021/08/16 03:42:22;;;;;;;25.53;16.47;;;;;;;;;;2105792;28;20051;-42
2021/08/16 03:43:23;;;;;;;24.75;15.88;;;;;;;;;;2102508;28;20064;-41
2021/08/16 03:44:24;;;;;;;25.27;15.67;;;;;;;;;;2104656;28;20452;-42
2021/08/16 03:45:25;;;;;;;22.33;14.80;;;;;;;;;;2105842;28;20593;-41
2021/08/16 03:46:26;;;;;;;28.00;15.47;;;;;;;;;;2101544;28;20093;-41
2021/08/16 03:47:27;;;;;;;27.50;16.33;;;;;;;;;;2104392;28;20457;-42
2021/08/16 03:48:28;;;;;;;31.17;18.00;;;;;;;;;;2105822;28;20050;-41
2021/08/16 03:49:29;;;;;;;25.90;16.38;;;;;;;;;;2102560;28;20075;-42
2021/08/16 03:50:30;;;;;;;24.70;14.93;;;;;;;;;;2105679;28;20405;-41
2021/08/16 03:51:31;;;;;;;23.38;14.55;;;;;;;;;;2105782;28;20519;-41
2021/08/16 03:52:33;;;;;;;22.75;14.93;;;;;;;;;;2099037;28;20498;-42
2021/08/16 03:53:33;;;;;;;24.10;14.57;;;;;;;;;;2105734;28;20126;-42
2021/08/16 03:54:34;;;;;;;23.67;14.20;;;;;;;;;;2105916;28;20286;-42
2021/08/16 03:55:35;;;;;;;18.15;13.85;;;;;;;;;;2101029;28;20139;-42
2021/08/16 03:56:36;;;;;;;22.83;13.63;;;;;;;;;;2105898;28;20044;-42
2021/08/16 03:57:37;;;;;;;22.75;13.02;;;;;;;;;;2105547;28;20382;-41
2021/08/16 03:58:41;;;;;;;21.97;14.63;;;;;;;;;;2102875;28;20131;-42
2021/08/16 03:59:42;;;;;;;21.17;13.48;;;;;;;;;;2097366;28;20580;-43
2021/08/16 04:00:43;;;;;;;23.55;15.13;;;;;;;;;;2097419;28;20091;-42
2021/08/16 04:01:44;;;;;;;25.55;14.88;;;;;;;;;;2101022;28;20067;-44
2021/08/16 04:02:46;;;;;;;28.70;14.60;;;;;;;;;;2097317;28;20058;-42
2021/08/16 04:03:48;;;;;;;20.98;13.68;;;;;;;;;;2096933;28;20045;-42
2021/08/16 04:04:49;;;;;;;21.20;13.63;;;;;;;;;;2102376;28;20055;-42
2021/08/16 04:05:50;;;;;;;22.15;13.52;;;;;;;;;;2105741;28;20142;-42
2021/08/16 04:06:52;;;;;;;20.33;14.60;;;;;;;;;;2103710;28;20048;-42
2021/08/16 04:07:53;;;;;;;19.42;12.80;;;;;;;;;;2103389;28;20127;-42
2021/08/16 04:08:56;;;;;;;19.58;13.88;;;;;;;;;;2105830;28;20080;-42
2021/08/16 04:09:57;;;;;;;20.70;13.18;;;;;;;;;;2103765;28;20103;-42
2021/08/16 04:10:58;;;;;;;21.52;11.98;;;;;;;;;;2104294;28;20109;-42
2021/08/16 04:11:59;;;;;;;19.20;13.27;;;;;;;;;;2105768;28;20451;-42
2021/08/16 04:13:00;;;;;;;;;;;;;;;;;;2102830;28;20106;-42
2021/08/16 04:14:01;;;;;;;18.13;12.23;;;;;;;;;;2104091;28;19920;-42
2021/08/16 04:15:04;;;;;;;24.67;13.93;;;;;;;;;;2105679;28;20536;-42
2021/08/16 04:16:07;;;;;;;18.52;12.10;;;;;;;;;;2103623;28;20048;-42
2021/08/16 04:17:08;;;;;;;21.60;12.98;;;;;;;;;;2104591;28;20040;-42
2021/08/16 04:18:09;;;;;;;22.07;12.90;;;;;;;;;;2105558;28;20044;-42
2021/08/16 04:19:10;;;;;;;19.80;12.65;;;;;;;;;;2101493;28;20131;-43
2021/08/16 04:20:12;;;;;;;19.70;12.20;;;;;;;;;;2104894;28;20047;-42
2021/08/16 04:21:12;;;;;;;;;;;;;;;;;;2105859;28;20131;-42
2021/08/16 04:22:13;;;;;;;18.85;12.40;;;;;;;;;;2102203;28;19927;-42
2021/08/16 04:23:14;;;;;;;18.55;13.55;;;;;;;;;;2105478;28;20036;-44
2021/08/16 04:24:15;;;;;;;18.77;12.63;;;;;;;;;;2105688;28;20516;-42
2021/08/16 04:25:17;;;;;;;17.52;12.05;;;;;;;;;;2100915;28;20572;-42
2021/08/16 04:26:18;;;;;;;22.98;12.95;;;;;;;;;;2105795;28;20130;-42
2021/08/16 04:27:19;;;;;;;23.95;13.65;;;;;;;;;;2105511;28;20150;-43
2021/08/16 04:28:20;;;;;;;18.43;12.27;;;;;;;;;;2102323;28;20100;-42
2021/08/16 04:29:21;;;;;;;22.55;12.43;;;;;;;;;;2105707;28;20051;-42
2021/08/16 04:30:23;;;;;;;17.33;12.30;;;;;;;;;;2105801;28;20394;-44
2021/08/16 04:31:24;;;;;;;;;;;;;;;;;;2102795;28;20044;-42
2021/08/16 04:32:25;;;;;;;17.70;11.77;;;;;;;;;;2105572;28;19930;-43
2021/08/16 04:33:26;;;;;;;23.90;12.20;;;;;;;;;;2105307;28;20051;-43
2021/08/16 04:34:27;;;;;;;21.52;12.23;;;;;;;;;;2102607;28;20044;-42
2021/08/16 04:35:28;;;;;;;17.27;11.87;;;;;;;;;;2106125;28;20048;-43
2021/08/16 04:36:29;;;;;;;19.10;11.48;;;;;;;;;;2104490;28;20047;-42
2021/08/16 04:37:33;;;;;;;18.35;12.27;;;;;;;;;;2100701;28;20732;-42
2021/08/16 04:38:35;;;;;;;21.80;11.85;;;;;;;;;;2098064;28;20049;-45
2021/08/16 04:39:36;;;;;;;18.45;11.50;;;;;;;;;;2096334;28;20258;-45
2021/08/16 04:40:37;;;;;;;20.13;11.73;;;;;;;;;;2104740;28;20513;-44
2021/08/16 04:41:38;;;;;;;17.40;11.38;;;;;;;;;;2105350;28;20292;-45
2021/08/16 04:42:40;;;;;;;20.65;12.82;;;;;;;;;;2103115;28;20362;-44
2021/08/16 04:43:41;;;;;;;18.73;11.90;;;;;;;;;;2105023;28;20044;-44
2021/08/16 04:44:42;;;;;;;16.92;10.93;;;;;;;;;;2106635;28;20082;-43
2021/08/16 04:45:44;;;;;;;21.05;11.02;;;;;;;;;;2103215;28;20048;-45
2021/08/16 04:46:45;;;;;;;25.35;12.25;;;;;;;;;;2100438;28;20482;-44
2021/08/16 04:47:46;;;;;;;17.83;11.57;;;;;;;;;;2099002;28;20045;-44
2021/08/16 04:48:48;;;;;;;21.80;11.75;;;;;;;;;;2104035;28;20041;-43
2021/08/16 04:49:49;;;;;;;20.60;12.45;;;;;;;;;;2106203;28;20092;-44
2021/08/16 04:50:50;;;;;;;24.83;12.93;;;;;;;;;;2106230;28;20090;-44
2021/08/16 04:51:51;;;;;;;23.63;10.57;;;;;;;;;;2100718;28;20074;-44
2021/08/16 04:52:52;;;;;;;19.40;11.33;;;;;;;;;;2100830;28;20486;-44
2021/08/16 04:53:53;;;;;;;24.77;10.73;;;;;;;;;;2103118;28;20750;-45
2021/08/16 04:54:54;;;;;;;21.60;10.57;;;;;;;;;;2102195;28;20059;-45
2021/08/16 04:55:56;;;;;;;23.92;11.55;;;;;;;;;;2103018;28;20129;-44
2021/08/16 04:56:56;;;;;;;47.03;13.40;;;;;;;;;;2103625;28;20173;-44
2021/08/16 04:57:58;;;;;;;15.90;10.17;;;;;;;;;;2102046;28;20102;-44
2021/08/16 04:59:00;;;;;;;28.48;11.48;;;;;;;;;;2106733;28;20425;-45
2021/08/16 05:00:02;;;;;;;25.60;11.20;;;;;;;;;;2106983;28;20048;-44
2021/08/16 05:01:04;;;;;;;16.52;9.68;;;;;;;;;;2104436;28;20048;-44
2021/08/16 05:02:05;;;;;;;18.73;10.23;;;;;;;;;;2106610;28;20048;-45
2021/08/16 05:03:06;;;;;;;18.52;10.90;;;;;;;;;;2106218;28;20417;-44
2021/08/16 05:04:07;;;;;;;23.42;10.90;;;;;;;;;;2103736;28;20385;-44
2021/08/16 05:05:10;;;;;;;26.17;11.10;;;;;;;;;;2107059;28;20089;-44
2021/08/16 05:06:11;;;;;;;20.15;10.45;;;;;;;;;;2104612;28;20048;-45
2021/08/16 05:07:12;;;;;;;16.05;10.07;;;;;;;;;;2103199;28;20553;-44
2021/08/16 05:08:13;;;;;;;14.73;10.18;;;;;;;;;;2101524;28;20067;-45
2021/08/16 05:09:14;;;;;;;15.05;10.77;;;;;;;;;;2100621;28;20119;-43
2021/08/16 05:10:16;;;;;;;19.97;10.17;;;;;;;;;;2104774;28;20055;-46
2021/08/16 05:11:16;;;;;;;21.40;10.45;;;;;;;;;;2101218;28;20040;-44
2021/08/16 05:12:18;;;;;;;16.57;10.20;;;;;;;;;;2101608;28;20101;-44
2021/08/16 05:13:19;;;;;;;16.02;10.43;;;;;;;;;;2103790;28;20515;-44
2021/08/16 05:14:20;;;;;;;21.05;11.80;;;;;;;;;;2101162;28;20051;-45
2021/08/16 05:15:21;;;;;;;19.80;10.20;;;;;;;;;;2101655;28;20853;-45
2021/08/16 05:16:24;;;;;;;17.88;9.95;;;;;;;;;;2103841;28;20056;-45
2021/08/16 05:17:25;;;;;;;16.02;10.00;;;;;;;;;;2102365;28;20040;-44
2021/08/16 05:18:26;;;;;;;17.85;10.45;;;;;;;;;;2101838;28;20136;-45
2021/08/16 05:19:27;;;;;;;17.87;10.73;;;;;;;;;;2103410;28;20040;-44
2021/08/16 05:20:29;;;;;;;15.27;10.40;;;;;;;;;;2102352;28;20500;-45
2021/08/16 05:21:30;;;;;;;20.75;11.40;;;;;;;;;;2102053;28;20549;-44
2021/08/16 05:22:31;;;;;;;15.32;9.80;;;;;;;;;;2104625;28;20134;-45
2021/08/16 05:23:32;;;;;;;21.27;11.25;;;;;;;;;;2102946;28;20109;-45
2021/08/16 05:24:34;;;;;;;19.60;9.65;;;;;;;;;;2101849;28;20220;-44
2021/08/16 05:25:35;;;;;;;16.80;9.57;;;;;;;;;;2104204;28;20528;-46
2021/08/16 05:26:36;;;;;;;17.13;9.25;;;;;;;;;;2102704;28;20052;-45
2021/08/16 05:27:37;;;;;;;16.20;8.50;;;;;;;;;;2102642;28;20575;-43
2021/08/16 05:28:38;;;;;;;24.77;9.82;;;;;;;;;;2100849;28;20173;-45
2021/08/16 05:29:39;;;;;;;19.13;9.80;;;;;;;;;;2103171;28;20120;-45
2021/08/16 05:30:40;;;;;;;15.45;9.38;;;;;;;;;;2102506;28;20047;-44
2021/08/16 05:31:41;;;;;;;18.80;9.60;;;;;;;;;;2103785;28;20052;-45
2021/08/16 05:32:43;;;;;;;21.35;10.20;;;;;;;;;;2099301;28;20051;-44
2021/08/16 05:33:44;;;;;;;23.38;10.90;;;;;;;;;;2105038;28;20095;-44
2021/08/16 05:34:45;;;;;;;25.70;10.87;;;;;;;;;;2103306;28;20048;-44
2021/08/16 05:35:46;;;;;;;19.45;9.80;;;;;;;;;;2101999;28;20583;-44
2021/08/16 05:36:47;;;;;;;18.27;9.93;;;;;;;;;;2104850;28;20090;-44
2021/08/16 05:37:48;;;;;;;27.02;9.82;;;;;;;;;;2101140;28;20071;-44
2021/08/16 05:38:50;;;;;;;24.13;10.27;;;;;;;;;;2102432;28;20043;-45
2021/08/16 05:39:50;;;;;;;17.15;10.23;;;;;;;;;;2103043;28;20459;-45
2021/08/16 05:40:52;;;;;;;13.17;9.10;;;;;;;;;;2102901;28;20589;-43
2021/08/16 05:41:52;;;;;;;17.95;9.60;;;;;;;;;;2097592;28;20054;-44
2021/08/16 05:42:54;;;;;;;17.95;9.43;;;;;;;;;;2104291;28;20043;-44
2021/08/16 05:43:54;;;;;;;13.73;9.80;;;;;;;;;;2102192;28;20495;-44
2021/08/16 05:44:55;;;;;;;15.90;9.60;;;;;;;;;;2099395;28;20044;-47
2021/08/16 05:45:57;;;;;;;15.60;8.73;;;;;;;;;;2104119;28;20389;-44
2021/08/16 05:47:01;;;;;;;16.55;9.82;;;;;;;;;;2101910;28;20044;-44
2021/08/16 05:48:02;;;;;;;12.93;8.60;;;;;;;;;;2101639;28;20044;-45
2021/08/16 05:49:03;;;;;;;10.48;8.25;;;;;;;;;;2103531;28;20036;-47
2021/08/16 05:50:05;;;;;;;15.63;8.85;;;;;;;;;;2101553;28;20105;-45
2021/08/16 05:51:06;;;;;;;15.98;9.30;;;;;;;;;;2100159;28;20044;-45
2021/08/16 05:52:07;;;;;;;13.27;9.33;;;;;;;;;;2103879;28;20118;-44
2021/08/16 05:53:08;;;;;;;17.05;9.02;;;;;;;;;;2101015;28;20305;-45
2021/08/16 05:54:09;;;;;;;15.50;9.48;;;;;;;;;;2099358;28;20576;-44
2021/08/16 05:55:11;;;;;;;13.43;8.37;;;;;;;;;;2104808;28;20052;-44
2021/08/16 05:56:11;;;;;;;14.95;8.75;;;;;;;;;;2100421;28;20511;-44
2021/08/16 05:57:13;;;;;;;17.43;9.00;;;;;;;;;;2103559;28;20055;-45
2021/08/16 05:58:13;;;;;;;18.92;9.43;;;;;;;;;;2105612;28;20367;-44